WSSS

Singapore Changi International Airport

Singapore, Singapore
METAR WSSS 171030Z 04007KT 320V070 9999 FEW020TCU BKN160 29/24 Q1006 NOSIG
Observed Flight Rules
Jan-17 @ 10:30 UTC (23 minutes ago) Visual Flight Rules
Wind Visibility Clouds
40° at 7 knots 10,000+ meters
  • Few at 2,000' AGL
  • Broken at 16,000' AGL
Temperatures Readings
Current 29°C / 84°F
Dewpoint 24°C / 75°F
Humidity 74%
Altimeter 29.7" Hg
Pressure 1006 hPa
Elevation 16
METAR WSSS 171030Z 04007KT 320V070 9999 FEW020TCU BKN160 29/24 Q1006 NOSIG
Observed Flight Rules
Jan-17 @ 10:30 UTC
(23 minutes ago)
VFR
Wind Visibility
40° at 7 knots 10,000+ meters
Clouds
  • Few at 2,000' AGL
  • Broken at 16,000' AGL
Temperature Dewpoint
29°C / 84°F 24°C / 75°F
Humidity Altimeter Pressure
74% 29.7" Hg 1006 hPa